Johnston, South Carolina
Current Conditions -  °F | °C
As of 3:35 PM on Friday 28 Nov 2014 (Local Time) from KAIK Reporting Station
Clear Clear  
Wind Chill: 48°   Ceiling: Unl
Heat Index: 48°   Visibility: 10mi
Dew Point: 23°   Wind: 0mph
Humidity: 37%   Direction: NA
Pressure: 30.34"   Gusts: NA
Location:  33.83°N, 81.8°W
Report Text: KAIK 282035Z AUTO 00000KT 10SM CLR 09/M05 A3034 RMK AO2 PNO
Loading
Personal Weather Stations






























Interactive Weather Map New forecast layout! Learn more

10-Day Weather Forecast

Advertisements
Track Severe Weather on mobile